Time;durP1;ratioP1;P1;durP2;ratioP2;P2;SDS_P1;SDS_P2;PMS_P1;PMS_P2;Temp;Humidity;BMP_temperature;BMP_pressure;BME280_temperature;BME280_humidity;BME280_pressure;Samples;Min_cycle;Max_cycle;Signal;HPM_P1;HPM_P2
2021/12/10 00:00:16;;;;;;;;;;;;;;;3.84;79.69;98991.75;5025014;28;20271;-80
2021/12/10 00:02:46;;;;;;;;;;;;;;;4.05;79.88;98993.53;5022014;28;19959;-80
2021/12/10 00:05:12;;;;;;;;;;;;;;;4.22;79.63;98996.13;5021419;28;19916;-80
2021/12/10 00:07:37;;;;;;;;;;;;;;;4.39;78.61;98995.25;5025395;28;19931;-80
2021/12/10 00:10:06;;;;;;;;;;;;;;;4.51;78.64;98994.34;5025518;28;19929;-81
2021/12/10 00:12:35;;;;;;;;;;;;;;;4.21;78.82;98983.06;5028818;28;20407;-82
2021/12/10 00:15:02;;;;;;;;;;;;;;;4.21;79.49;98996.97;5028643;28;20380;-81
2021/12/10 00:17:27;;;;;;;;;;;;;;;4.24;79.86;98967.41;5022623;28;20016;-80
2021/12/10 00:19:56;;;;;;;;;;;;;;;4.40;79.02;98969.13;5021415;28;19913;-80
2021/12/10 00:22:25;;;;;;;;;;;;;;;4.59;78.65;98974.31;5022121;28;20399;-81
2021/12/10 00:24:51;;;;;;;;;;;;;;;4.73;78.20;98975.16;5032086;28;19927;-80
2021/12/10 00:27:26;;;;;;;;;;;;;;;4.36;78.77;98985.66;5023822;28;19976;-82
2021/12/10 00:29:52;;;;;;;;;;;;;;;4.51;79.77;98973.44;5026772;28;19921;-80
2021/12/10 00:32:31;;;;;;;;;;;;;;;4.44;79.26;98957.78;5027244;28;19921;-81
2021/12/10 00:34:58;;;;;;;;;;;;;;;4.50;79.85;98950.84;5020880;28;19917;-81
2021/12/10 00:37:25;;;;;;;;;;;;;;;4.38;79.36;98968.25;5026035;28;19978;-80
2021/12/10 00:39:53;;;;;;;;;;;;;;;4.41;79.22;98949.97;5029265;28;19927;-82
2021/12/10 00:42:20;;;;;;;;;;;;;;;4.29;79.94;98953.47;5033534;28;19921;-80
2021/12/10 00:44:46;;;;;;;;;;;;;;;4.46;78.99;98936.88;5039609;28;19967;-81
2021/12/10 00:47:11;;;;;;;;;;;;;;;4.50;79.17;98936.03;5025007;28;20387;-81
2021/12/10 00:49:37;;;;;;;;;;;;;;;4.66;78.40;98935.13;5025725;28;19928;-79
2021/12/10 00:52:03;;;;;;;;;;;;;;;4.60;78.48;98929.91;5027639;28;19917;-79
2021/12/10 00:54:28;;;;;;;;;;;;;;;4.61;78.93;98923.78;5027717;28;20462;-80
2021/12/10 00:56:54;;;;;;;;;;;;;;;4.62;78.63;98961.25;5041097;28;19995;-79
2021/12/10 00:59:20;;;;;;;;;;;;;;;4.26;79.42;98936.94;5035579;28;20015;-79
2021/12/10 01:01:48;;;;;;;;;;;;;;;4.09;81.09;98936.94;5027689;28;20804;-81
2021/12/10 01:04:15;;;;;;;;;;;;;;;4.32;80.81;98952.59;5028250;28;19917;-80
2021/12/10 01:06:42;;;;;;;;;;;;;;;4.00;81.65;98932.63;5037784;28;19920;-79
2021/12/10 01:09:28;;;;;;;;;;;;;;;4.10;82.29;98939.56;5046173;28;19931;-79
2021/12/10 01:11:58;;;;;;;;;;;;;;;4.00;83.02;98911.75;5048297;28;19928;-79
2021/12/10 01:14:39;;;;;;;;;;;;;;;4.09;83.67;98919.56;5048103;28;19931;-80
2021/12/10 01:25:40;;;;;;;;;;;;;;;4.34;83.14;98906.47;5046367;28;19928;-79
2021/12/10 01:28:07;;;;;;;;;;;;;;;4.60;82.11;98895.94;5028004;28;19944;-80
2021/12/10 01:30:34;;;;;;;;;;;;;;;4.51;82.36;98888.16;5028929;28;19943;-79
2021/12/10 01:33:08;;;;;;;;;;;;;;;4.68;81.81;98911.59;5026228;28;19923;-81
2021/12/10 01:35:37;;;;;;;;;;;;;;;4.77;81.47;98895.00;5028319;28;19966;-80
2021/12/10 01:38:04;;;;;;;;;;;;;;;4.52;82.39;98883.78;5027708;28;19951;-81
2021/12/10 01:40:31;;;;;;;;;;;;;;;4.58;82.23;98899.44;5025281;28;19919;-80
2021/12/10 01:43:05;;;;;;;;;;;;;;;4.74;82.03;98897.63;5027977;28;19917;-81
2021/12/10 01:45:32;;;;;;;;;;;;;;;4.52;82.06;98861.13;5027044;28;19916;-82
2021/12/10 01:48:04;;;;;;;;;;;;;;;4.50;82.54;98859.41;5047104;28;19920;-81
2021/12/10 01:50:29;;;;;;;;;;;;;;;4.50;82.84;98877.69;5033656;28;19920;-80
2021/12/10 01:52:56;;;;;;;;;;;;;;;4.75;81.76;98861.03;5028116;28;20409;-79
2021/12/10 01:55:23;;;;;;;;;;;;;;;4.92;81.00;98862.69;5040622;28;20018;-80
2021/12/10 01:57:48;;;;;;;;;;;;;;;4.78;81.47;98837.50;5030156;28;20310;-81
2021/12/10 02:00:14;;;;;;;;;;;;;;;5.09;80.41;98839.06;5021345;28;19917;-80
2021/12/10 02:02:41;;;;;;;;;;;;;;;5.08;80.07;98839.94;5026963;28;20423;-80
2021/12/10 02:05:07;;;;;;;;;;;;;;;5.19;79.85;98832.91;5027862;28;19932;-80
2021/12/10 02:07:33;;;;;;;;;;;;;;;5.13;80.10;98832.97;5040690;28;19917;-80
2021/12/10 02:09:58;;;;;;;;;;;;;;;5.01;80.83;98800.78;5029266;28;19975;-80
2021/12/10 02:12:24;;;;;;;;;;;;;;;5.08;80.78;98801.63;5028027;28;20323;-80
2021/12/10 02:14:58;;;;;;;;;;;;;;;5.31;80.02;98782.25;5026767;28;19995;-79
2021/12/10 02:17:24;;;;;;;;;;;;;;;5.09;80.29;98803.34;5040567;28;19974;-80
2021/12/10 02:19:49;;;;;;;;;;;;;;;4.92;81.88;98777.31;5024179;28;19982;-79
2021/12/10 02:22:15;;;;;;;;;;;;;;;5.23;80.54;98781.47;5027981;28;19916;-80
2021/12/10 02:24:40;;;;;;;;;;;;;;;5.10;80.88;98762.38;5044641;28;19920;-79
2021/12/10 02:27:06;;;;;;;;;;;;;;;5.05;81.00;98775.50;5035944;28;19978;-79
2021/12/10 02:29:34;;;;;;;;;;;;;;;5.20;80.62;98774.50;5027569;28;20009;-81
2021/12/10 02:31:59;;;;;;;;;;;;;;;5.00;81.48;98764.19;5027633;28;19924;-80
2021/12/10 02:34:25;;;;;;;;;;;;;;;5.11;81.93;98770.22;5027624;28;19909;-80
2021/12/10 02:36:51;;;;;;;;;;;;;;;5.44;80.40;98796.97;5033654;28;19920;-80
2021/12/10 02:39:19;;;;;;;;;;;;;;;5.13;81.36;98778.91;5041485;28;19920;-80
2021/12/10 02:41:45;;;;;;;;;;;;;;;5.32;80.40;98777.00;5047398;28;20366;-79
2021/12/10 02:44:12;;;;;;;;;;;;;;;5.14;81.97;98792.84;5031384;28;19921;-79
2021/12/10 02:46:37;;;;;;;;;;;;;;;5.12;81.94;98792.00;5032110;28;20015;-80
2021/12/10 02:49:04;;;;;;;;;;;;;;;5.11;81.92;98779.78;5037062;28;20351;-82
2021/12/10 02:51:29;;;;;;;;;;;;;;;5.04;82.31;98781.59;5026195;28;20011;-80
2021/12/10 02:53:54;;;;;;;;;;;;;;;4.66;84.24;98788.81;5024960;28;20019;-80
2021/12/10 02:56:21;;;;;;;;;;;;;;;4.88;83.89;98782.56;5026488;28;19937;-79
2021/12/10 02:58:49;;;;;;;;;;;;;;;5.02;83.62;98780.75;5044326;28;20693;-78
2021/12/10 03:01:14;;;;;;;;;;;;;;;5.09;83.05;98787.66;5044174;28;19916;-81
2021/12/10 03:03:40;;;;;;;;;;;;;;;5.17;82.24;98792.81;5043802;28;20011;-81
2021/12/10 03:06:10;;;;;;;;;;;;;;;4.97;82.66;98793.84;5044018;28;20317;-81
2021/12/10 03:08:37;;;;;;;;;;;;;;;5.11;82.74;98809.44;5026405;28;20330;-80
2021/12/10 03:11:02;;;;;;;;;;;;;;;5.28;82.56;98818.88;5025659;28;19916;-80
2021/12/10 03:13:27;;;;;;;;;;;;;;;5.07;82.23;98796.41;5026916;28;20429;-80
2021/12/10 03:15:53;;;;;;;;;;;;;;;4.92;83.24;98813.03;5023878;28;19912;-80
2021/12/10 03:18:19;;;;;;;;;;;;;;;4.96;82.51;98812.16;5042922;28;19959;-81
2021/12/10 03:20:44;;;;;;;;;;;;;;;4.80;83.41;98793.97;5043117;28;19921;-80
2021/12/10 03:23:11;;;;;;;;;;;;;;;4.74;84.68;98796.59;5046040;28;19912;-79
2021/12/10 03:25:37;;;;;;;;;;;;;;;4.72;85.49;98785.28;5045540;28;19999;-79
2021/12/10 03:28:03;;;;;;;;;;;;;;;4.99;85.34;98792.09;5029284;28;20004;-79
2021/12/10 03:30:31;;;;;;;;;;;;;;;4.80;86.31;98791.34;5026336;28;19916;-79
2021/12/10 03:32:57;;;;;;;;;;;;;;;4.92;87.05;98799.97;5023589;28;20307;-79
2021/12/10 03:35:28;;;;;;;;;;;;;;;4.94;87.01;98793.88;5021560;28;19921;-80
2021/12/10 03:37:55;;;;;;;;;;;;;;;4.89;87.01;98784.31;5039878;28;20780;-80
2021/12/10 03:40:20;;;;;;;;;;;;;;;4.94;88.06;98772.97;5043738;28;19928;-79
2021/12/10 03:42:47;;;;;;;;;;;;;;;5.35;86.65;98760.44;5026739;28;20326;-80
2021/12/10 03:45:13;;;;;;;;;;;;;;;5.57;85.50;98763.72;5025336;28;19923;-80
2021/12/10 03:47:39;;;;;;;;;;;;;;;5.23;85.98;98744.84;5036361;28;19924;-80
2021/12/10 03:50:07;;;;;;;;;;;;;;;5.35;86.74;98778.75;5035038;28;20330;-80
2021/12/10 03:52:32;;;;;;;;;;;;;;;5.64;85.70;98767.13;5025221;28;20292;-80
2021/12/10 03:55:00;;;;;;;;;;;;;;;5.69;85.40;98760.97;5025505;28;19921;-80
2021/12/10 03:57:25;;;;;;;;;;;;;;;5.76;84.50;98771.38;5035401;28;19920;-80
2021/12/10 03:59:50;;;;;;;;;;;;;;;5.85;84.08;98789.59;5046321;28;19924;-80
2021/12/10 04:02:16;;;;;;;;;;;;;;;5.68;84.13;98748.75;5045768;28;19913;-80
2021/12/10 04:04:44;;;;;;;;;;;;;;;5.55;84.51;98697.47;5046422;28;19920;-80
2021/12/10 04:07:15;;;;;;;;;;;;;;;5.45;85.68;98693.19;5030953;28;20525;-81
2021/12/10 04:09:40;;;;;;;;;;;;;;;5.52;87.09;98734.13;5022335;28;19921;-80
2021/12/10 04:12:07;;;;;;;;;;;;;;;5.70;85.29;98718.22;5026440;28;19924;-80
2021/12/10 04:14:33;;;;;;;;;;;;;;;5.29;87.07;98671.56;5027657;28;19928;-81
2021/12/10 04:16:58;;;;;;;;;;;;;;;5.68;85.12;98679.88;5035622;28;19916;-80
2021/12/10 04:19:26;;;;;;;;;;;;;;;5.86;83.70;98710.22;5045368;28;19950;-81
2021/12/10 04:21:53;;;;;;;;;;;;;;;5.59;84.14;98690.44;5045749;28;19912;-81
2021/12/10 04:24:19;;;;;;;;;;;;;;;5.25;86.31;98690.78;5046046;28;20302;-81
2021/12/10 04:26:45;;;;;;;;;;;;;;;5.64;85.34;98735.72;5038278;28;19932;-82
2021/12/10 04:29:11;;;;;;;;;;;;;;;5.55;85.44;98714.00;5029603;28;19920;-80
2021/12/10 04:31:36;;;;;;;;;;;;;;;5.75;84.54;98686.78;5021529;28;19928;-80
2021/12/10 04:34:02;;;;;;;;;;;;;;;5.99;83.41;98690.00;5035032;28;20012;-80
2021/12/10 04:36:27;;;;;;;;;;;;;;;5.31;85.39;98669.78;5043045;28;20414;-80
2021/12/10 04:38:53;;;;;;;;;;;;;;;5.43;86.20;98697.59;5029574;28;20007;-81
2021/12/10 04:41:19;;;;;;;;;;;;;;;5.66;85.10;98719.13;5029321;28;20016;-79
2021/12/10 04:43:45;;;;;;;;;;;;;;;5.49;84.91;98701.00;5029685;28;19925;-81
2021/12/10 04:46:10;;;;;;;;;;;;;;;5.26;86.75;98727.38;5030076;28;20464;-80
2021/12/10 04:48:45;;;;;;;;;;;;;;;5.49;85.56;98758.53;5030594;28;20001;-80
2021/12/10 04:51:10;;;;;;;;;;;;;;;5.40;86.29;98756.00;5052542;28;20016;-80
2021/12/10 04:53:36;;;;;;;;;;;;;;;5.50;85.79;98759.41;5029568;28;20059;-79
2021/12/10 04:56:01;;;;;;;;;;;;;;;5.80;83.84;98766.09;5031020;28;19959;-79
2021/12/10 04:58:27;;;;;;;;;;;;;;;5.40;85.07;98765.63;5049058;28;20390;-79
2021/12/10 05:00:52;;;;;;;;;;;;;;;5.57;84.75;98748.00;5042163;28;20025;-81
2021/12/10 05:03:18;;;;;;;;;;;;;;;5.58;85.68;98752.38;5043710;28;19924;-78
2021/12/10 05:05:44;;;;;;;;;;;;;;;5.43;86.56;98762.97;5049119;28;19913;-79
2021/12/10 05:08:10;;;;;;;;;;;;;;;5.59;86.42;98782.00;5048891;28;19920;-79
2021/12/10 05:10:36;;;;;;;;;;;;;;;5.66;86.78;98766.22;5033593;28;20015;-81
2021/12/10 05:13:01;;;;;;;;;;;;;;;5.69;86.66;98739.19;5030504;28;20082;-79
2021/12/10 05:15:28;;;;;;;;;;;;;;;5.92;85.86;98783.44;5046154;28;20799;-79
2021/12/10 05:17:54;;;;;;;;;;;;;;;5.96;85.91;98776.41;5032865;28;20398;-80
2021/12/10 05:20:23;;;;;;;;;;;;;;;5.88;85.65;98790.44;5031909;28;19921;-80
2021/12/10 05:22:49;;;;;;;;;;;;;;;6.02;85.82;98813.00;5030392;28;20657;-78
2021/12/10 05:25:15;;;;;;;;;;;;;;;6.15;85.64;98796.28;5029789;28;19964;-79
2021/12/10 05:27:41;;;;;;;;;;;;;;;6.05;85.66;98803.38;5039089;28;19921;-79
2021/12/10 05:30:09;;;;;;;;;;;;;;;6.11;85.09;98791.97;5032045;28;19921;-79
2021/12/10 05:32:34;;;;;;;;;;;;;;;5.85;87.48;98784.38;5043568;28;19921;-80
2021/12/10 05:35:00;;;;;;;;;;;;;;;6.00;86.69;98822.66;5043041;28;19924;-79
2021/12/10 05:37:25;;;;;;;;;;;;;;;5.80;88.19;98783.56;5049090;28;19916;-80
2021/12/10 05:39:51;;;;;;;;;;;;;;;5.97;88.44;98799.13;5046047;28;20054;-78
2021/12/10 05:42:16;;;;;;;;;;;;;;;5.85;89.22;98800.06;5028766;28;19917;-78
2021/12/10 05:44:42;;;;;;;;;;;;;;;5.72;91.20;98773.16;5029070;28;20357;-80
2021/12/10 05:47:07;;;;;;;;;;;;;;;6.20;89.33;98794.47;5037142;28;19932;-80
2021/12/10 05:49:33;;;;;;;;;;;;;;;6.19;87.92;98781.41;5030454;28;19947;-81
2021/12/10 05:51:58;;;;;;;;;;;;;;;5.81;91.67;98756.47;5047685;28;19921;-81
2021/12/10 05:54:23;;;;;;;;;;;;;;;5.88;93.05;98792.19;5038377;28;19951;-80
2021/12/10 05:56:49;;;;;;;;;;;;;;;6.05;92.28;98799.91;5047310;28;20322;-81
2021/12/10 05:59:14;;;;;;;;;;;;;;;6.25;91.73;98808.38;5031833;28;19912;-80
2021/12/10 06:01:40;;;;;;;;;;;;;;;6.17;92.22;98804.13;5030834;28;20016;-80
2021/12/10 06:04:05;;;;;;;;;;;;;;;6.15;93.22;98809.38;5029030;28;19978;-81
2021/12/10 06:06:32;;;;;;;;;;;;;;;6.19;93.57;98804.97;5039691;28;20009;-82
2021/12/10 06:08:58;;;;;;;;;;;;;;;6.21;94.45;98814.56;5039754;28;19925;-82
2021/12/10 06:11:24;;;;;;;;;;;;;;;6.33;94.19;98815.28;5039963;28;20055;-81
2021/12/10 06:13:50;;;;;;;;;;;;;;;6.43;94.56;98816.94;5032923;28;19920;-83
2021/12/10 06:16:16;;;;;;;;;;;;;;;6.55;93.50;98823.75;5024262;28;19921;-83
2021/12/10 06:18:41;;;;;;;;;;;;;;;6.67;92.91;98822.72;5024969;28;20404;-81
2021/12/10 06:21:07;;;;;;;;;;;;;;;6.79;92.70;98819.94;5028025;28;20007;-82
2021/12/10 06:23:32;;;;;;;;;;;;;;;6.84;92.18;98818.13;5040319;28;19936;-80
2021/12/10 06:25:58;;;;;;;;;;;;;;;6.86;92.64;98831.22;5048372;28;19970;-81
2021/12/10 06:28:23;;;;;;;;;;;;;;;6.96;91.85;98822.34;5048139;28;20406;-81
2021/12/10 06:30:49;;;;;;;;;;;;;;;7.06;91.50;98823.06;5048028;28;20432;-81
2021/12/10 06:33:16;;;;;;;;;;;;;;;7.11;91.27;98831.75;5049060;28;19917;-80
2021/12/10 06:35:42;;;;;;;;;;;;;;;7.06;91.51;98846.66;5046554;28;19915;-81
2021/12/10 06:38:08;;;;;;;;;;;;;;;7.22;92.02;98849.94;5048363;28;20044;-81
2021/12/10 06:40:35;;;;;;;;;;;;;;;7.44;89.97;98848.72;5048287;28;19912;-80
2021/12/10 06:43:01;;;;;;;;;;;;;;;7.48;89.44;98833.81;5047946;28;19920;-84
2021/12/10 06:45:27;;;;;;;;;;;;;;;7.49;88.98;98814.53;5047619;28;19919;-81
2021/12/10 06:47:55;;;;;;;;;;;;;;;7.55;88.05;98795.19;5047119;28;20358;-81
2021/12/10 06:50:22;;;;;;;;;;;;;;;7.49;87.98;98806.66;5046662;28;19982;-83
2021/12/10 06:52:48;;;;;;;;;;;;;;;7.56;88.57;98805.66;5047001;28;20469;-81
2021/12/10 06:55:14;;;;;;;;;;;;;;;7.62;87.27;98800.31;5047188;28;19951;-81
2021/12/10 06:57:39;;;;;;;;;;;;;;;7.68;87.65;98797.56;5047037;28;19916;-82
2021/12/10 07:00:06;;;;;;;;;;;;;;;7.88;86.83;98796.38;5047998;28;19923;-81
2021/12/10 07:02:32;;;;;;;;;;;;;;;7.90;86.20;98797.19;5047654;28;19913;-83
2021/12/10 07:04:57;;;;;;;;;;;;;;;8.09;86.20;98808.22;5047858;28;19943;-81
2021/12/10 07:07:22;;;;;;;;;;;;;;;8.04;86.12;98797.78;5047794;28;20045;-81
2021/12/10 07:09:48;;;;;;;;;;;;;;;7.93;87.20;98791.88;5047451;28;19963;-81
2021/12/10 07:12:13;;;;;;;;;;;;;;;7.89;87.74;98783.22;5046963;28;19919;-81
2021/12/10 07:14:38;;;;;;;;;;;;;;;7.66;89.15;98767.00;5047218;28;19913;-80
2021/12/10 07:17:04;;;;;;;;;;;;;;;7.81;88.74;98769.34;5047235;28;19931;-80
2021/12/10 07:19:29;;;;;;;;;;;;;;;7.60;89.70;98764.47;5047243;28;20390;-81
2021/12/10 07:21:55;;;;;;;;;;;;;;;7.98;89.28;98795.28;5031181;28;19920;-81
2021/12/10 07:24:20;;;;;;;;;;;;;;;8.15;88.17;98815.13;5027471;28;20361;-82
2021/12/10 07:26:47;;;;;;;;;;;;;;;8.33;87.98;98821.78;5027050;28;19920;-81
2021/12/10 07:29:12;;;;;;;;;;;;;;;8.43;86.77;98828.56;5027406;28;20325;-81
2021/12/10 07:31:39;;;;;;;;;;;;;;;8.55;86.29;98836.25;5026730;28;19917;-82
2021/12/10 07:34:04;;;;;;;;;;;;;;;8.61;87.03;98845.78;5046016;28;19978;-81
2021/12/10 07:36:30;;;;;;;;;;;;;;;8.49;85.98;98846.88;5046670;28;19948;-83
2021/12/10 07:38:58;;;;;;;;;;;;;;;8.51;85.96;98839.84;5046336;28;19923;-81
2021/12/10 07:41:24;;;;;;;;;;;;;;;8.61;85.54;98840.50;5037556;28;19921;-80
2021/12/10 07:43:50;;;;;;;;;;;;;;;8.73;85.70;98842.03;5027370;28;19996;-79
2021/12/10 07:46:15;;;;;;;;;;;;;;;8.78;86.03;98853.31;5025720;28;19995;-81
2021/12/10 07:48:42;;;;;;;;;;;;;;;8.87;87.75;98865.41;5027330;28;19916;-81
2021/12/10 07:51:10;;;;;;;;;;;;;;;8.89;86.75;98864.47;5040650;28;20425;-81
2021/12/10 07:53:36;;;;;;;;;;;;;;;8.95;85.69;98872.22;5026995;28;20401;-82
2021/12/10 07:56:03;;;;;;;;;;;;;;;8.98;85.15;98860.78;5027404;28;19917;-83
2021/12/10 07:58:30;;;;;;;;;;;;;;;9.01;85.73;98849.31;5026551;28;20398;-81
2021/12/10 08:00:55;;;;;;;;;;;;;;;9.02;85.23;98845.78;5026191;28;19920;-81
2021/12/10 08:03:21;;;;;;;;;;;;;;;9.06;85.04;98842.19;5029924;28;19913;-81
2021/12/10 08:05:46;;;;;;;;;;;;;;;8.96;84.82;98833.66;5030104;28;19920;-81
2021/12/10 08:08:12;;;;;;;;;;;;;;;9.09;85.24;98826.34;5031077;28;19927;-81
2021/12/10 08:10:38;;;;;;;;;;;;;;;9.34;84.24;98845.03;5031271;28;19996;-80
2021/12/10 08:13:04;;;;;;;;;;;;;;;9.37;84.07;98850.22;5030094;28;19928;-80
2021/12/10 08:15:29;;;;;;;;;;;;;;;9.13;84.70;98849.06;5031127;28;19919;-80
2021/12/10 08:17:55;;;;;;;;;;;;;;;9.38;83.23;98845.84;5029949;28;19974;-82
2021/12/10 08:20:21;;;;;;;;;;;;;;;9.29;84.49;98842.53;5030136;28;19916;-81
2021/12/10 08:22:48;;;;;;;;;;;;;;;9.32;83.56;98838.97;5030788;28;20621;-81
2021/12/10 08:25:13;;;;;;;;;;;;;;;9.24;84.02;98840.91;5030242;28;19936;-80
2021/12/10 08:27:38;;;;;;;;;;;;;;;9.46;82.93;98836.84;5029369;28;20318;-81
2021/12/10 08:30:06;;;;;;;;;;;;;;;9.75;82.19;98845.81;5030532;28;19944;-82
2021/12/10 08:32:32;;;;;;;;;;;;;;;9.74;81.86;98856.38;5038234;28;19952;-82
2021/12/10 08:34:58;;;;;;;;;;;;;;;9.81;82.08;98843.03;5030368;28;19912;-81
2021/12/10 08:37:23;;;;;;;;;;;;;;;9.90;80.90;98835.78;5030071;28;19917;-83
2021/12/10 08:39:48;;;;;;;;;;;;;;;9.41;84.28;98841.38;5029310;28;19917;-83
2021/12/10 08:42:14;;;;;;;;;;;;;;;9.72;83.04;98852.94;5030647;28;20395;-82
2021/12/10 08:44:42;;;;;;;;;;;;;;;9.65;83.09;98849.56;5030328;28;19917;-81
2021/12/10 08:47:08;;;;;;;;;;;;;;;9.88;83.11;98822.66;5030004;28;19920;-81
2021/12/10 08:49:33;;;;;;;;;;;;;;;9.76;82.78;98817.69;5030185;28;19967;-81
2021/12/10 08:51:59;;;;;;;;;;;;;;;9.79;83.00;98810.59;5029992;28;19923;-82
2021/12/10 08:54:29;;;;;;;;;;;;;;;9.72;83.72;98806.38;5030361;28;19923;-81
2021/12/10 08:56:54;;;;;;;;;;;;;;;10.11;82.83;98798.31;5029999;28;19924;-81
2021/12/10 08:59:23;;;;;;;;;;;;;;;10.18;83.03;98802.53;5029854;28;19920;-81
2021/12/10 09:01:49;;;;;;;;;;;;;;;10.34;83.29;98799.50;5029528;28;20373;-81
2021/12/10 09:04:15;;;;;;;;;;;;;;;10.32;84.06;98810.06;5030273;28;20366;-81
2021/12/10 09:06:42;;;;;;;;;;;;;;;10.44;82.96;98800.09;5030024;28;19917;-81
2021/12/10 09:09:09;;;;;;;;;;;;;;;10.80;83.05;98792.88;5029569;28;19923;-81
2021/12/10 09:11:36;;;;;;;;;;;;;;;10.69;83.03;98780.00;5029460;28;20036;-81
2021/12/10 09:14:01;;;;;;;;;;;;;;;10.75;84.01;98778.94;5028263;28;19963;-81
2021/12/10 09:16:28;;;;;;;;;;;;;;;11.02;82.44;98779.03;5029426;28;19948;-82
2021/12/10 09:18:58;;;;;;;;;;;;;;;10.98;82.94;98790.56;5029740;28;20320;-81
2021/12/10 09:21:24;;;;;;;;;;;;;;;11.10;83.80;98791.03;5029243;28;19927;-81
2021/12/10 09:23:52;;;;;;;;;;;;;;;10.84;82.27;98773.38;5029617;28;19913;-81
2021/12/10 09:26:18;;;;;;;;;;;;;;;10.96;80.84;98777.44;5029345;28;19917;-81
2021/12/10 09:28:45;;;;;;;;;;;;;;;11.43;80.87;98793.53;5029257;28;19928;-82
2021/12/10 09:31:11;;;;;;;;;;;;;;;11.45;81.68;98804.91;5029738;28;20012;-81
2021/12/10 09:33:37;;;;;;;;;;;;;;;11.51;80.99;98785.34;5029057;28;19921;-82
2021/12/10 09:36:02;;;;;;;;;;;;;;;11.56;81.36;98778.13;5029726;28;19992;-82
2021/12/10 09:38:29;;;;;;;;;;;;;;;11.55;80.90;98771.13;5029223;28;20032;-81
2021/12/10 09:40:57;;;;;;;;;;;;;;;11.60;80.16;98766.56;5028630;28;20043;-81
2021/12/10 09:43:22;;;;;;;;;;;;;;;11.76;80.30;98774.81;5028833;28;19917;-82
2021/12/10 09:45:48;;;;;;;;;;;;;;;11.72;78.27;98767.91;5028218;28;20505;-81
2021/12/10 09:48:15;;;;;;;;;;;;;;;11.80;78.15;98791.41;5027784;28;20298;-82
2021/12/10 09:50:43;;;;;;;;;;;;;;;11.62;78.50;98798.22;5026660;28;20315;-81
2021/12/10 09:53:09;;;;;;;;;;;;;;;11.47;79.31;98775.81;5028602;28;19967;-81
2021/12/10 09:55:35;;;;;;;;;;;;;;;11.23;79.83;98770.41;5028038;28;20438;-82
2021/12/10 09:58:00;;;;;;;;;;;;;;;11.65;79.13;98771.69;5027856;28;19953;-78
2021/12/10 10:00:29;;;;;;;;;;;;;;;11.50;79.84;98780.13;5028947;28;20016;-79
2021/12/10 10:02:55;;;;;;;;;;;;;;;11.62;79.63;98799.06;5027632;28;19913;-79
2021/12/10 10:05:26;;;;;;;;;;;;;;;11.60;79.37;98794.72;5028008;28;20018;-79
2021/12/10 10:07:53;;;;;;;;;;;;;;;11.73;78.86;98787.28;5028013;28;19924;-81
2021/12/10 10:10:19;;;;;;;;;;;;;;;11.37;80.58;98779.66;5027772;28;19979;-80
2021/12/10 10:12:46;;;;;;;;;;;;;;;11.73;79.18;98787.28;5028141;28;19980;-80
2021/12/10 10:15:13;;;;;;;;;;;;;;;11.64;79.19;98773.44;5028128;28;19913;-82
2021/12/10 10:17:39;;;;;;;;;;;;;;;11.66;79.22;98765.47;5028316;28;19921;-83
2021/12/10 10:20:06;;;;;;;;;;;;;;;11.60;78.52;98773.59;5028186;28;19963;-80
2021/12/10 10:22:32;;;;;;;;;;;;;;;11.64;78.65;98783.16;5028160;28;20023;-80
2021/12/10 10:24:58;;;;;;;;;;;;;;;11.78;78.21;98764.19;5026933;28;20027;-81
2021/12/10 10:27:31;;;;;;;;;;;;;;;11.72;77.89;98754.69;5028001;28;19917;-81
2021/12/10 10:29:58;;;;;;;;;;;;;;;11.71;78.91;98760.03;5027906;28;19939;-81
2021/12/10 10:32:27;;;;;;;;;;;;;;;11.45;80.82;98764.44;5028035;28;19917;-80
2021/12/10 10:34:54;;;;;;;;;;;;;;;11.85;79.68;98755.16;5028034;28;19959;-80
2021/12/10 10:37:20;;;;;;;;;;;;;;;11.94;78.71;98739.00;5027515;28;20014;-82
2021/12/10 10:39:46;;;;;;;;;;;;;;;11.68;79.39;98718.75;5027712;28;20501;-83
2021/12/10 10:42:15;;;;;;;;;;;;;;;12.08;78.19;98711.19;5028001;28;20375;-82
2021/12/10 10:44:41;;;;;;;;;;;;;;;11.78;77.88;98698.13;5027777;28;19917;-82
2021/12/10 10:47:07;;;;;;;;;;;;;;;12.01;78.75;98694.69;5027664;28;19919;-82
2021/12/10 10:49:39;;;;;;;;;;;;;;;11.89;78.55;98673.97;5027275;28;20310;-82
2021/12/10 10:52:12;;;;;;;;;;;;;;;11.97;77.92;98662.25;5027106;28;20415;-83
2021/12/10 10:54:37;;;;;;;;;;;;;;;12.14;77.02;98666.91;5027698;28;19917;-82
2021/12/10 10:57:10;;;;;;;;;;;;;;;12.41;75.65;98676.47;5027301;28;19920;-82
2021/12/10 10:59:35;;;;;;;;;;;;;;;12.68;73.60;98677.16;5027457;28;20470;-82
2021/12/10 11:02:07;;;;;;;;;;;;;;;12.88;72.63;98636.66;5031649;28;20016;-83
2021/12/10 11:04:34;;;;;;;;;;;;;;;12.54;75.24;98652.13;5026872;28;20096;-84
2021/12/10 11:07:05;;;;;;;;;;;;;;;12.60;74.54;98664.25;5025974;28;19979;-82
2021/12/10 11:09:33;;;;;;;;;;;;;;;12.75;73.81;98668.06;5026698;28;19917;-81
2021/12/10 11:12:06;;;;;;;;;;;;;;;12.92;73.67;98687.72;5027383;28;19975;-81
2021/12/10 11:14:34;;;;;;;;;;;;;;;12.80;73.92;98665.22;5026751;28;20463;-81
2021/12/10 11:17:10;;;;;;;;;;;;;;;12.89;72.04;98655.13;5026960;28;19921;-81
2021/12/10 11:19:36;;;;;;;;;;;;;;;12.76;73.11;98658.34;5026613;28;19921;-81
2021/12/10 11:22:10;;;;;;;;;;;;;;;12.90;74.28;98679.81;5027176;28;20011;-82
2021/12/10 11:24:45;;;;;;;;;;;;;;;12.97;74.43;98675.13;5026975;28;19923;-81
2021/12/10 11:27:31;;;;;;;;;;;;;;;13.12;73.81;98681.59;5026482;28;19924;-81
2021/12/10 11:30:02;;;;;;;;;;;;;;;13.17;72.65;98680.47;5026197;28;19913;-81
2021/12/10 11:32:34;;;;;;;;;;;;;;;13.30;72.82;98686.13;5032488;28;19920;-81
2021/12/10 11:35:05;;;;;;;;;;;;;;;13.54;70.70;98668.31;5045666;28;19968;-81
2021/12/10 11:37:39;;;;;;;;;;;;;;;13.40;71.45;98670.72;5045491;28;20003;-81
2021/12/10 11:40:07;;;;;;;;;;;;;;;13.21;73.59;98679.41;5046606;28;19913;-81
2021/12/10 11:42:45;;;;;;;;;;;;;;;13.46;72.68;98685.50;5027714;28;19917;-81
2021/12/10 11:45:41;;;;;;;;;;;;;;;13.52;73.30;98672.00;5039585;28;19964;-80
2021/12/10 11:48:11;;;;;;;;;;;;;;;13.41;75.76;98661.84;5046301;28;19974;-83
2021/12/10 11:50:44;;;;;;;;;;;;;;;13.22;75.91;98659.97;5046684;28;19916;-80
2021/12/10 11:53:12;;;;;;;;;;;;;;;12.95;78.08;98661.97;5046782;28;19974;-81
2021/12/10 11:55:52;;;;;;;;;;;;;;;12.83;78.42;98670.41;5046835;28;19916;-80
2021/12/10 11:58:17;;;;;;;;;;;;;;;12.69;79.94;98666.50;5046041;28;19920;-82
2021/12/10 12:00:44;;;;;;;;;;;;;;;12.72;80.48;98666.38;5046551;28;20680;-81
2021/12/10 12:03:10;;;;;;;;;;;;;;;12.74;79.77;98674.28;5045155;28;19946;-82
2021/12/10 12:05:38;;;;;;;;;;;;;;;12.98;78.60;98675.06;5046410;28;19917;-81
2021/12/10 12:08:06;;;;;;;;;;;;;;;13.18;74.03;98663.66;5046245;28;19943;-81
2021/12/10 12:10:39;;;;;;;;;;;;;;;13.20;70.27;98663.59;5046642;28;19917;-81
2021/12/10 12:15:57;;;;;;;;;;;;;;;13.43;67.04;98644.94;5046659;28;19978;-80
2021/12/10 12:18:32;;;;;;;;;;;;;;;13.52;66.56;98640.19;5046751;28;19919;-80
2021/12/10 12:21:37;;;;;;;;;;;;;;;13.54;67.30;98644.47;5045899;28;19963;-81
2021/12/10 12:26:34;;;;;;;;;;;;;;;13.87;64.96;98630.69;5045910;28;20306;-80
2021/12/10 12:29:07;;;;;;;;;;;;;;;14.04;61.76;98621.06;5045967;28;19917;-82
2021/12/10 12:31:37;;;;;;;;;;;;;;;13.96;59.22;98617.00;5040437;28;20391;-82
2021/12/10 12:34:02;;;;;;;;;;;;;;;14.18;61.21;98610.69;5045824;28;19923;-82
2021/12/10 12:36:34;;;;;;;;;;;;;;;14.05;62.39;98609.53;5046015;28;19917;-85
2021/12/10 12:38:59;;;;;;;;;;;;;;;13.96;62.51;98608.16;5037493;28;20717;-83
2021/12/10 12:41:26;;;;;;;;;;;;;;;14.02;57.97;98613.19;5036456;28;20001;-83
2021/12/10 12:44:07;;;;;;;;;;;;;;;13.95;58.63;98619.72;5035047;28;19963;-81
2021/12/10 12:46:33;;;;;;;;;;;;;;;14.00;64.37;98633.63;5036909;28;19999;-83
2021/12/10 12:48:59;;;;;;;;;;;;;;;14.06;66.21;98627.19;5046847;28;19999;-81
2021/12/10 12:51:25;;;;;;;;;;;;;;;14.05;67.52;98621.00;5046493;28;19920;-82
2021/12/10 12:53:51;;;;;;;;;;;;;;;13.85;68.48;98627.22;5049018;28;19912;-81
2021/12/10 12:56:17;;;;;;;;;;;;;;;13.93;68.41;98624.22;5049033;28;19916;-80
2021/12/10 12:58:42;;;;;;;;;;;;;;;13.74;69.20;98613.59;5032627;28;19920;-79
2021/12/10 13:01:14;;;;;;;;;;;;;;;13.64;70.20;98617.59;5031726;28;19956;-82
2021/12/10 13:03:52;;;;;;;;;;;;;;;13.32;70.54;98615.41;5029427;28;19913;-80
2021/12/10 13:06:30;;;;;;;;;;;;;;;13.23;71.76;98629.03;5027984;28;19940;-80